Time;durP1;ratioP1;P1;durP2;ratioP2;P2;SDS_P1;SDS_P2;PMS_P1;PMS_P2;Temp;Humidity;BMP_temperature;BMP_pressure;BME280_temperature;BME280_humidity;BME280_pressure;Samples;Min_cycle;Max_cycle;Signal;HPM_P1;HPM_P2
2022/07/13 00:01:59;;;;;;;;;3.00;2.33;;;;;-146.67;23.15;73585.63;5045194;28;61802;-79
2022/07/13 00:04:25;;;;;;;;;2.00;2.00;;;;;-146.67;23.32;73595.63;5064214;28;61749;-79
2022/07/13 00:06:50;;;;;;;;;3.67;3.67;;;;;-146.67;23.39;73599.63;5045219;28;64804;-79
2022/07/13 00:09:16;;;;;;;;;3.00;3.00;;;;;-146.67;23.39;73601.59;5045763;28;61983;-79
2022/07/13 00:11:42;;;;;;;;;2.00;2.00;;;;;-146.67;23.48;73613.59;5063732;28;61740;-79
2022/07/13 00:14:08;;;;;;;;;4.33;3.00;;;;;-146.67;23.68;73617.56;5063766;28;61824;-79
2022/07/13 00:16:33;;;;;;;;;3.33;3.33;;;;;-146.67;23.42;73623.56;5062433;28;62002;-78
2022/07/13 00:18:59;;;;;;;;;0.00;0.00;;;;;-146.67;23.48;73629.56;5063721;28;61864;-78
2022/07/13 00:21:24;;;;;;;;;3.00;1.67;;;;;-146.67;23.71;73629.56;5063873;28;62305;-78
2022/07/13 00:23:49;;;;;;;;;3.00;3.00;;;;;-146.67;23.48;73635.53;5045253;28;62185;-78
2022/07/13 00:26:15;;;;;;;;;3.33;2.00;;;;;-146.67;23.52;73641.53;5063255;28;61803;-78
2022/07/13 00:28:40;;;;;;;;;3.33;3.00;;;;;-146.67;23.50;73651.50;5044847;28;61784;-78
2022/07/13 00:31:06;;;;;;;;;5.00;3.00;;;;;-146.67;23.74;73649.50;5045614;28;62687;-78
2022/07/13 00:33:31;;;;;;;;;3.33;2.00;;;;;-146.67;23.77;73649.50;5063941;28;62012;-78
2022/07/13 00:35:56;;;;;;;;;2.00;2.00;;;;;-146.67;23.79;73653.50;5062938;28;63134;-78
2022/07/13 00:38:22;;;;;;;;;7.67;3.33;;;;;-146.67;24.00;73657.50;5062278;28;62133;-78
2022/07/13 00:40:47;;;;;;;;;3.33;3.33;;;;;-146.67;24.07;73653.50;5062368;28;61948;-78
2022/07/13 00:43:13;;;;;;;;;4.00;4.00;;;;;-146.67;24.39;73653.50;5045073;28;61810;-78
2022/07/13 00:45:38;;;;;;;;;3.33;3.33;;;;;-146.67;24.12;73659.50;5062991;28;63188;-78
2022/07/13 00:48:05;;;;;;;;;3.33;3.33;;;;;-146.67;24.57;73661.50;5045327;28;62095;-78
2022/07/13 00:50:30;;;;;;;;;2.67;2.33;;;;;-146.67;24.19;73683.44;5062054;28;61740;-78
2022/07/13 00:52:56;;;;;;;;;2.67;2.67;;;;;-146.67;24.08;73681.44;5063514;28;62096;-78
2022/07/13 00:55:21;;;;;;;;;2.33;2.33;;;;;-146.67;24.27;73689.44;5062883;28;63222;-78
2022/07/13 00:57:47;;;;;;;;;4.67;4.00;;;;;-146.67;24.33;73687.44;5063089;28;62190;-79
2022/07/13 01:00:14;;;;;;;;;4.00;4.00;;;;;-146.67;24.43;73687.44;5062035;28;61965;-79
2022/07/13 01:02:41;;;;;;;;;4.00;4.00;;;;;-146.67;24.83;73687.44;5045250;28;61931;-79
2022/07/13 01:05:07;;;;;;;;;3.67;3.00;;;;;-146.67;24.66;73691.44;5062720;28;61969;-79
2022/07/13 01:07:33;;;;;;;;;3.33;2.00;;;;;-146.67;24.82;73689.44;5063116;28;61892;-79
2022/07/13 01:10:00;;;;;;;;;4.00;4.00;;;;;-146.67;24.44;73693.44;5061474;28;61775;-79
2022/07/13 01:12:29;;;;;;;;;3.00;3.00;;;;;-146.67;24.90;73693.44;5061989;28;62001;-79
2022/07/13 01:14:57;;;;;;;;;5.00;4.00;;;;;-146.67;24.96;73699.41;5060976;28;61760;-79
2022/07/13 01:17:23;;;;;;;;;3.00;3.00;;;;;-146.67;24.76;73701.41;5054121;28;62093;-79
2022/07/13 01:19:50;;;;;;;;;2.67;2.67;;;;;-146.67;24.73;73705.41;5062691;28;61761;-79
2022/07/13 01:22:24;;;;;;;;;4.00;3.00;;;;;-146.67;24.65;73707.41;5044764;28;61865;-79
2022/07/13 01:24:50;;;;;;;;;3.33;3.33;;;;;-146.67;24.98;73715.38;5061448;28;62021;-79
2022/07/13 01:27:16;;;;;;;;;5.33;4.33;;;;;-146.67;25.21;73723.38;5062520;28;61784;-79
2022/07/13 01:29:42;;;;;;;;;3.33;2.00;;;;;-146.67;25.37;73715.38;5062759;28;61915;-79
2022/07/13 01:32:07;;;;;;;;;4.00;3.00;;;;;-146.67;25.31;73717.38;5062414;28;61777;-79
2022/07/13 01:34:33;;;;;;;;;4.67;3.67;;;;;-146.67;25.22;73717.38;5043822;28;63715;-79
2022/07/13 01:37:00;;;;;;;;;4.00;4.00;;;;;-146.67;25.54;73721.38;5044278;28;61737;-79
2022/07/13 01:39:26;;;;;;;;;5.00;3.00;;;;;-146.67;25.23;73723.38;5044233;28;61957;-78
2022/07/13 01:41:51;;;;;;;;;4.33;3.67;;;;;-146.67;24.68;73725.38;5060942;28;62164;-78
2022/07/13 01:44:17;;;;;;;;;3.00;3.00;;;;;-146.67;24.85;73719.38;5060308;28;64036;-78
2022/07/13 01:46:43;;;;;;;;;6.33;4.00;;;;;-146.67;25.45;73723.38;5062327;28;62052;-78
2022/07/13 01:49:09;;;;;;;;;4.33;3.00;;;;;-146.67;25.56;73709.41;5060929;28;61751;-78
2022/07/13 01:51:34;;;;;;;;;4.00;4.00;;;;;-146.67;24.83;73719.38;5062846;28;62050;-78
2022/07/13 01:54:00;;;;;;;;;7.33;5.67;;;;;-146.67;25.37;73717.38;5061482;28;61955;-78
2022/07/13 01:56:26;;;;;;;;;7.67;3.00;;;;;-146.67;25.54;73713.38;5061199;28;61997;-78
2022/07/13 01:58:51;;;;;;;;;3.33;2.00;;;;;-146.67;25.56;73703.41;5062633;28;62107;-78
2022/07/13 02:01:17;;;;;;;;;2.00;2.00;;;;;-146.67;25.22;73707.41;5044573;28;61751;-78
2022/07/13 02:03:42;;;;;;;;;3.00;3.00;;;;;-146.67;25.65;73699.41;5043490;28;63970;-78
2022/07/13 02:06:08;;;;;;;;;4.00;3.67;;;;;-146.67;25.25;73697.41;5044124;28;61914;-78
2022/07/13 02:08:33;;;;;;;;;2.33;2.33;;;;;-146.67;25.62;73695.41;5062120;28;61830;-78
2022/07/13 02:10:59;;;;;;;;;6.33;5.00;;;;;-146.67;25.38;73687.44;5061042;28;61803;-78
2022/07/13 02:13:24;;;;;;;;;3.00;2.33;;;;;-146.67;25.54;73679.44;5061664;28;61918;-78
2022/07/13 02:15:50;;;;;;;;;4.00;4.00;;;;;-146.67;25.40;73681.44;5060430;28;62170;-78
2022/07/13 02:18:16;;;;;;;;;6.33;4.00;;;;;-146.67;25.43;73689.44;5044023;28;61730;-78
2022/07/13 02:20:42;;;;;;;;;7.00;4.33;;;;;-146.67;25.82;73693.44;5062464;28;62144;-78
2022/07/13 02:23:07;;;;;;;;;4.00;4.00;;;;;-146.67;25.77;73691.44;5061255;28;63075;-78
2022/07/13 02:25:33;;;;;;;;;6.00;3.00;;;;;-146.67;25.78;73695.41;5040223;28;61780;-79
2022/07/13 02:28:00;;;;;;;;;5.33;5.33;;;;;-146.67;25.92;73693.44;5042113;28;61919;-78
2022/07/13 02:30:25;;;;;;;;;4.00;4.00;;;;;-146.67;25.85;73699.41;5040639;28;61763;-78
2022/07/13 02:32:51;;;;;;;;;2.67;2.67;;;;;-146.67;25.66;73699.41;5039717;28;64875;-78
2022/07/13 02:35:17;;;;;;;;;5.00;3.33;;;;;-146.67;26.11;73697.41;5041830;28;61839;-78
2022/07/13 02:37:42;;;;;;;;;6.67;4.00;;;;;-146.67;25.74;73691.44;5041748;28;61860;-78
2022/07/13 02:40:09;;;;;;;;;3.00;3.00;;;;;-146.67;25.76;73689.44;5040724;28;61996;-78
2022/07/13 02:42:35;;;;;;;;;8.00;4.33;;;;;-146.67;25.94;73687.44;5041212;28;62047;-78
2022/07/13 02:45:01;;;;;;;;;6.00;4.33;;;;;-146.67;26.04;73691.44;5041222;28;61871;-78
2022/07/13 02:47:27;;;;;;;;;3.00;3.00;;;;;-146.67;25.91;73693.44;5041950;28;61879;-78
2022/07/13 02:49:52;;;;;;;;;2.67;2.67;;;;;-146.67;25.90;73695.41;5042164;28;61791;-78
2022/07/13 02:52:17;;;;;;;;;4.33;4.00;;;;;-146.67;25.85;73697.41;5056228;28;64650;-78
2022/07/13 02:54:43;;;;;;;;;4.00;3.00;;;;;-146.67;26.12;73693.44;5041860;28;61807;-78
2022/07/13 02:57:09;;;;;;;;;5.00;5.00;;;;;-146.67;25.79;73701.41;5041579;28;61701;-78
2022/07/13 02:59:38;;;;;;;;;3.33;1.00;;;;;-146.67;25.89;73707.41;5040588;28;61821;-78
2022/07/13 03:02:05;;;;;;;;;5.00;4.00;;;;;-146.67;25.79;73705.41;5041007;28;63130;-78
2022/07/13 03:04:31;;;;;;;;;5.67;3.33;;;;;-146.67;25.33;73709.41;5041419;28;61878;-78
2022/07/13 03:06:57;;;;;;;;;2.00;2.00;;;;;-146.67;25.59;73713.38;5041313;28;61775;-78
2022/07/13 03:09:22;;;;;;;;;4.00;4.00;;;;;-146.67;25.97;73703.41;5057205;28;62057;-78
2022/07/13 03:11:48;;;;;;;;;3.33;2.00;;;;;-146.67;26.14;73705.41;5040992;28;61911;-78
2022/07/13 03:14:13;;;;;;;;;4.33;4.33;;;;;-146.67;26.31;73705.41;5039696;28;62160;-78
2022/07/13 03:16:38;;;;;;;;;3.00;3.00;;;;;-146.67;26.23;73703.41;5040026;28;61963;-78
2022/07/13 03:19:04;;;;;;;;;5.00;5.00;;;;;-146.67;25.91;73701.41;5040250;28;62328;-78
2022/07/13 03:21:29;;;;;;;;;4.00;4.00;;;;;-146.67;26.25;73701.41;5039359;28;64879;-78
2022/07/13 03:23:56;;;;;;;;;5.00;2.00;;;;;-146.67;26.36;73701.41;5047333;28;61741;-78
2022/07/13 03:26:22;;;;;;;;;4.00;4.00;;;;;-146.67;26.31;73709.41;5061391;28;61807;-78
2022/07/13 03:28:47;;;;;;;;;4.67;4.33;;;;;-146.67;26.54;73713.38;5061837;28;61694;-78
2022/07/13 03:31:13;;;;;;;;;5.33;4.33;;;;;-146.67;26.47;73715.38;5060634;28;61784;-78
2022/07/13 03:33:38;;;;;;;;;6.00;6.00;;;;;-146.67;26.78;73715.38;5059713;28;62035;-78
2022/07/13 03:36:04;;;;;;;;;4.67;4.67;;;;;-146.67;26.50;73721.38;5043183;28;61852;-78
2022/07/13 03:38:31;;;;;;;;;4.00;4.00;;;;;-146.67;26.54;73719.38;5064677;28;61857;-78
2022/07/13 03:40:56;;;;;;;;;4.00;3.67;;;;;-146.67;26.59;73719.38;5064201;28;61859;-78
2022/07/13 03:43:22;;;;;;;;;5.00;5.00;;;;;-146.67;26.54;73727.34;5045995;28;61825;-78
2022/07/13 03:45:48;;;;;;;;;3.67;3.33;;;;;-146.67;26.45;73731.34;5064770;28;61864;-78
2022/07/13 03:48:13;;;;;;;;;4.33;3.33;;;;;-146.67;26.45;73731.34;5064749;28;62061;-78
2022/07/13 03:50:39;;;;;;;;;6.00;3.00;;;;;-146.67;26.46;73727.34;5062382;28;64822;-78
2022/07/13 03:53:05;;;;;;;;;6.00;4.00;;;;;-146.67;26.33;73741.34;5046361;28;61998;-78
2022/07/13 03:55:30;;;;;;;;;3.33;3.00;;;;;-146.67;26.02;73753.31;5046128;28;61894;-78
2022/07/13 03:57:56;;;;;;;;;5.67;4.33;;;;;-146.67;26.05;73747.31;5046466;28;62003;-78
2022/07/13 04:00:21;;;;;;;;;5.00;3.33;;;;;-146.67;25.94;73747.31;5062302;28;63847;-78
2022/07/13 04:02:47;;;;;;;;;4.00;4.00;;;;;-146.67;26.04;73757.31;5046222;28;61928;-78
2022/07/13 04:05:12;;;;;;;;;6.00;4.00;;;;;-146.67;25.89;73751.31;5045871;28;61793;-78
2022/07/13 04:07:38;;;;;;;;;2.33;2.33;;;;;-146.67;26.17;73755.31;5064451;28;61811;-78
2022/07/13 04:10:03;;;;;;;;;3.33;3.00;;;;;-146.67;26.82;73747.31;5063884;28;62835;-78
2022/07/13 04:12:29;;;;;;;;;6.00;6.00;;;;;-146.67;26.25;73747.31;5064022;28;61942;-78
2022/07/13 04:14:55;;;;;;;;;5.00;4.00;;;;;-146.67;26.68;73745.31;5064093;28;62466;-78
2022/07/13 04:17:20;;;;;;;;;3.00;3.00;;;;;-146.67;26.91;73743.31;5045696;28;62256;-78
2022/07/13 04:19:46;;;;;;;;;4.00;4.00;;;;;-146.67;26.97;73745.31;5063208;28;61863;-78
2022/07/13 04:22:11;;;;;;;;;3.67;3.67;;;;;-146.67;26.64;73745.31;5062696;28;62009;-78
2022/07/13 04:24:37;;;;;;;;;6.00;4.00;;;;;-146.67;26.77;73747.31;5063897;28;61749;-78
2022/07/13 04:27:03;;;;;;;;;6.33;3.67;;;;;-146.67;27.02;73747.31;5064223;28;61808;-78
2022/07/13 04:29:28;;;;;;;;;5.67;4.00;;;;;-146.67;26.89;73753.31;5062992;28;61838;-78
2022/07/13 04:31:54;;;;;;;;;5.00;5.00;;;;;-146.67;26.93;73739.34;5063821;28;62030;-78
2022/07/13 04:34:19;;;;;;;;;5.00;4.00;;;;;-146.67;27.01;73741.34;5045563;28;62098;-78
2022/07/13 04:36:44;;;;;;;;;5.33;5.33;;;;;-146.67;27.09;73743.31;5046024;28;62227;-78
2022/07/13 04:39:11;;;;;;;;;5.00;5.00;;;;;-146.67;27.30;73741.34;5062019;28;64779;-78
2022/07/13 04:41:37;;;;;;;;;4.00;4.00;;;;;-146.67;26.73;73733.34;5063649;28;61717;-78
2022/07/13 04:44:03;;;;;;;;;6.67;5.00;;;;;-146.67;27.35;73745.31;5062297;28;61955;-78
2022/07/13 04:46:28;;;;;;;;;5.00;3.00;;;;;-146.67;27.19;73743.31;5062457;28;61855;-78
2022/07/13 04:48:53;;;;;;;;;6.33;6.33;;;;;-146.67;27.40;73743.31;5044561;28;63971;-78
2022/07/13 04:51:19;;;;;;;;;6.00;5.00;;;;;-146.67;27.23;73745.31;5045502;28;61878;-79
2022/07/13 04:53:45;;;;;;;;;8.00;5.00;;;;;-146.67;27.48;73737.34;5045426;28;61823;-79
2022/07/13 04:56:11;;;;;;;;;8.33;5.00;;;;;-146.67;27.31;73743.31;5045762;28;61815;-79
2022/07/13 04:58:37;;;;;;;;;5.00;3.00;;;;;-146.67;27.39;73737.34;5062881;28;62112;-79
2022/07/13 05:01:06;;;;;;;;;7.00;7.00;;;;;-146.67;27.23;73737.34;5045210;28;61917;-79
2022/07/13 05:03:32;;;;;;;;;6.67;5.67;;;;;-146.67;27.25;73731.34;5061846;28;61884;-78
2022/07/13 05:05:57;;;;;;;;;4.33;4.33;;;;;-146.67;27.30;73727.34;5045418;28;62061;-79
2022/07/13 05:08:23;;;;;;;;;5.00;4.00;;;;;-146.67;27.17;73723.38;5044539;28;63772;-79
2022/07/13 05:10:49;;;;;;;;;5.75;5.75;;;;;-146.67;27.46;73723.38;5063367;28;61821;-79
2022/07/13 05:13:14;;;;;;;;;6.33;5.00;;;;;-146.67;27.64;73725.38;5063024;28;61915;-79
2022/07/13 05:15:40;;;;;;;;;5.67;5.00;;;;;-146.67;27.67;73715.38;5061696;28;62181;-79
2022/07/13 05:18:05;;;;;;;;;9.00;5.00;;;;;-146.67;27.42;73715.38;5060739;28;63680;-79
2022/07/13 05:20:30;;;;;;;;;8.00;5.67;;;;;-146.67;27.91;73703.41;5061500;28;62006;-79
2022/07/13 05:22:56;;;;;;;;;5.00;5.00;;;;;-146.67;27.79;73703.41;5063308;28;61739;-79
2022/07/13 05:25:22;;;;;;;;;4.75;4.75;;;;;-146.67;27.45;73693.44;5063161;28;62179;-79
2022/07/13 05:27:47;;;;;;;;;5.67;4.67;;;;;-146.67;27.03;73689.44;5044434;28;63867;-79
2022/07/13 05:30:12;;;;;;;;;4.67;4.67;;;;;-146.67;27.37;73681.44;5045085;28;62078;-79
2022/07/13 05:32:38;;;;;;;;;5.67;5.00;;;;;-146.67;27.47;73673.47;5044271;28;61896;-79
2022/07/13 05:35:04;;;;;;;;;5.67;4.00;;;;;-146.67;26.96;73667.47;5044973;28;61752;-79
2022/07/13 05:37:29;;;;;;;;;6.67;4.33;;;;;-146.67;26.60;73669.47;5062293;28;62060;-79
2022/07/13 05:39:55;;;;;;;;;7.00;6.00;;;;;-146.67;26.30;73669.47;5044746;28;61887;-79
2022/07/13 05:42:20;;;;;;;;;3.00;3.00;;;;;-146.67;26.25;73663.47;5061465;28;61813;-79
2022/07/13 05:44:46;;;;;;;;;3.00;3.00;;;;;-146.67;26.41;73667.47;5061401;28;61785;-77
2022/07/13 05:47:12;;;;;;;;;2.00;2.00;;;;;-146.67;26.10;73665.47;5061620;28;61901;-77
2022/07/13 05:49:37;;;;;;;;;1.00;1.00;;;;;-146.67;25.17;73663.47;5062452;28;61733;-76
2022/07/13 05:52:03;;;;;;;;;4.00;3.00;;;;;-146.67;25.74;73655.50;5044225;28;61765;-76
2022/07/13 05:54:30;;;;;;;;;13.50;11.00;;;;;-146.67;25.34;73649.50;5044198;28;62193;-76
2022/07/13 05:56:55;;;;;;;;;11.00;9.00;;;;;-146.67;25.25;73647.50;5043470;28;64908;-76
2022/07/13 05:59:21;;;;;;;;;4.00;4.00;;;;;-146.67;25.08;73641.53;5043426;28;61991;-77
2022/07/13 06:01:46;;;;;;;;;4.67;3.00;;;;;-146.67;26.03;73625.56;5061795;28;61830;-77
2022/07/13 06:04:12;;;;;;;;;4.33;3.00;;;;;-146.67;25.50;73619.56;5062531;28;61823;-77
2022/07/13 06:06:37;;;;;;;;;4.67;3.67;;;;;-146.67;25.35;73621.56;5043094;28;63501;-76
2022/07/13 06:09:03;;;;;;;;;1.67;1.67;;;;;-146.67;25.04;73615.59;5044049;28;61929;-76
2022/07/13 06:11:29;;;;;;;;;6.00;3.00;;;;;-146.67;24.65;73605.59;5060824;28;61896;-74
2022/07/13 06:13:54;;;;;;;;;6.33;4.00;;;;;-146.67;24.39;73595.63;5061805;28;61892;-74
2022/07/13 06:16:19;;;;;;;;;5.00;4.00;;;;;-146.67;24.71;73597.63;5059987;28;63704;-74
2022/07/13 06:18:45;;;;;;;;;4.67;3.00;;;;;-146.67;24.37;73589.63;5060820;28;61793;-74
2022/07/13 06:21:10;;;;;;;;;8.67;5.00;;;;;-146.67;24.57;73579.66;5044256;28;61836;-75
2022/07/13 06:23:36;;;;;;;;;4.00;3.00;;;;;-146.67;24.61;73581.66;5059740;28;61796;-75
2022/07/13 06:26:01;;;;;;;;;2.67;2.67;;;;;-146.67;24.65;73575.66;5060904;28;62752;-75
2022/07/13 06:28:27;;;;;;;;;6.00;4.00;;;;;-146.67;24.19;73575.66;5061147;28;62277;-75
2022/07/13 06:30:52;;;;;;;;;2.00;2.00;;;;;-146.67;23.64;73567.69;5042381;28;61993;-75
2022/07/13 06:33:18;;;;;;;;;3.33;2.67;;;;;-146.67;24.41;73563.69;5060962;28;62032;-74
2022/07/13 06:35:43;;;;;;;;;3.67;2.00;;;;;-146.67;23.99;73565.69;5060766;28;61956;-75
2022/07/13 06:38:09;;;;;;;;;4.33;2.00;;;;;-146.67;24.10;73549.72;5061513;28;61882;-75
2022/07/13 06:40:34;;;;;;;;;4.00;2.00;;;;;-146.67;23.98;73551.72;5043201;28;62157;-75
2022/07/13 06:43:00;;;;;;;;;2.00;2.00;;;;;-146.67;24.16;73549.72;5061422;28;62008;-81
2022/07/13 06:45:25;;;;;;;;;8.67;4.67;;;;;-146.67;24.50;73553.72;5043042;28;63569;-78
2022/07/13 06:47:51;;;;;;;;;5.33;4.33;;;;;-146.67;24.56;73547.72;5043072;28;61937;-79
2022/07/13 06:50:17;;;;;;;;;5.33;2.33;;;;;-146.67;24.46;73541.72;5061538;28;61946;-79
2022/07/13 06:52:44;;;;;;;;;5.00;3.00;;;;;-146.67;24.55;73539.72;5060394;28;62026;-79
2022/07/13 06:55:10;;;;;;;;;2.67;2.67;;;;;-146.67;23.90;73533.75;5060985;28;62683;-79
2022/07/13 06:57:36;;;;;;;;;5.33;4.67;;;;;-146.67;24.18;73541.72;5061362;28;61708;-80
2022/07/13 07:00:03;;;;;;;;;3.67;3.67;;;;;-146.67;23.86;73549.72;5043016;28;61772;-74
2022/07/13 07:02:29;;;;;;;;;2.67;2.67;;;;;-146.67;24.19;73547.72;5061634;28;61873;-75
2022/07/13 07:04:55;;;;;;;;;4.00;3.00;;;;;-146.67;25.01;73525.75;5041494;28;63807;-75
2022/07/13 07:07:20;;;;;;;;;5.00;3.00;;;;;-146.67;24.76;73511.78;5042758;28;61930;-77
2022/07/13 07:09:46;;;;;;;;;2.33;2.33;;;;;-146.67;24.56;73497.81;5060172;28;62233;-74
2022/07/13 07:12:11;;;;;;;;;4.00;4.00;;;;;-146.67;24.66;73491.84;5044590;28;61868;-74
2022/07/13 07:14:37;;;;;;;;;3.67;3.67;;;;;-146.67;24.37;73481.84;5063976;28;61969;-74
2022/07/13 07:17:03;;;;;;;;;4.00;3.00;;;;;-146.67;24.17;73469.88;5063156;28;62085;-74
2022/07/13 07:19:29;;;;;;;;;2.67;2.67;;;;;-146.67;24.33;73465.88;5065136;28;61909;-74
2022/07/13 07:21:55;;;;;;;;;2.67;2.67;;;;;-146.67;24.01;73461.88;5065138;28;61844;-74
2022/07/13 07:24:21;;;;;;;;;6.67;4.67;;;;;-146.67;24.17;73463.88;5064261;28;61886;-74
2022/07/13 07:26:49;;;;;;;;;3.00;3.00;;;;;-146.67;24.11;73473.88;5046749;28;61849;-74
2022/07/13 07:29:15;;;;;;;;;2.00;2.00;;;;;-146.67;23.79;73477.84;5046662;28;62189;-74
2022/07/13 07:31:41;;;;;;;;;4.00;3.00;;;;;-146.67;23.91;73479.84;5064990;28;62114;-75
2022/07/13 07:34:07;;;;;;;;;3.33;3.33;;;;;-146.67;23.93;73491.84;5059137;28;63079;-74
2022/07/13 07:36:32;;;;;;;;;5.00;4.00;;;;;-146.67;24.00;73495.81;5060859;28;61883;-74
2022/07/13 07:38:57;;;;;;;;;5.33;2.67;;;;;-146.67;24.45;73487.84;5063493;28;61802;-74
2022/07/13 07:41:23;;;;;;;;;6.67;3.00;;;;;-146.67;24.00;73477.84;5064492;28;62014;-74
2022/07/13 07:43:48;;;;;;;;;3.00;2.00;;;;;-146.67;23.77;73469.88;5061792;28;61780;-74
2022/07/13 07:46:14;;;;;;;;;2.00;2.00;;;;;-146.67;23.76;73465.88;5062787;28;61903;-74
2022/07/13 07:48:40;;;;;;;;;4.00;2.33;;;;;-146.67;23.46;73467.88;5062448;28;61924;-74
2022/07/13 07:51:05;;;;;;;;;3.33;3.33;;;;;-146.67;23.79;73457.91;5062639;28;61733;-74
2022/07/13 07:53:31;;;;;;;;;4.33;2.00;;;;;-146.67;23.71;73441.94;5063994;28;61860;-74
2022/07/13 07:55:56;;;;;;;;;5.00;4.00;;;;;-146.67;23.56;73429.97;5063966;28;62117;-74
2022/07/13 07:58:22;;;;;;;;;3.00;3.00;;;;;-146.67;23.74;73408.00;5064241;28;61916;-74
2022/07/13 08:00:47;;;;;;;;;3.33;3.33;;;;;-146.67;24.01;73404.00;5064366;28;61717;-75
2022/07/13 08:03:13;;;;;;;;;5.67;1.67;;;;;-146.67;23.41;73414.00;5063660;28;62015;-74
2022/07/13 08:05:38;;;;;;;;;3.00;3.00;;;;;-146.67;23.26;73404.00;5063825;28;61863;-74
2022/07/13 08:08:04;;;;;;;;;3.33;2.00;;;;;-146.67;23.66;73415.97;5063639;28;62127;-74
2022/07/13 08:10:30;;;;;;;;;3.33;2.67;;;;;-146.67;23.59;73421.97;5063955;28;61927;-74
2022/07/13 08:12:58;;;;;;;;;2.00;2.00;;;;;-146.67;23.52;73433.94;5044924;28;63797;-74
2022/07/13 08:15:24;;;;;;;;;3.00;3.00;;;;;-146.67;23.54;73429.97;5061725;28;62924;-75
2022/07/13 08:17:49;;;;;;;;;2.00;2.00;;;;;-146.67;23.74;73429.97;5057370;28;62234;-75
2022/07/13 08:20:15;;;;;;;;;4.67;3.00;;;;;-146.67;23.57;73427.97;5063712;28;61906;-74
2022/07/13 08:22:40;;;;;;;;;4.00;4.00;;;;;-146.67;23.39;73431.94;5062135;28;62019;-75
2022/07/13 08:25:06;;;;;;;;;4.00;3.00;;;;;-146.67;23.66;73431.94;5044603;28;62125;-75
2022/07/13 08:27:32;;;;;;;;;1.33;1.33;;;;;-146.67;23.42;73421.97;5059677;28;61823;-74
2022/07/13 08:29:59;;;;;;;;;3.67;2.00;;;;;-146.67;23.48;73406.00;5063870;28;61807;-74
2022/07/13 08:32:25;;;;;;;;;5.67;2.67;;;;;-146.67;23.48;73412.00;5063116;28;61871;-75
2022/07/13 08:40:19;;;;;;;;;6.00;2.67;;;;;-146.67;23.61;73410.00;5062761;28;61941;-76
2022/07/13 08:42:45;;;;;;;;;2.00;2.00;;;;;-146.67;23.66;73394.03;5063271;28;61924;-75
2022/07/13 08:45:10;;;;;;;;;4.67;4.00;;;;;-146.67;23.74;73386.03;5044782;28;61956;-75
2022/07/13 08:47:37;;;;;;;;;5.33;2.33;;;;;-146.67;24.28;73378.06;5045293;28;61966;-75
2022/07/13 08:50:06;;;;;;;;;4.67;3.00;;;;;-146.67;23.88;73372.06;5062516;28;61844;-75
2022/07/13 08:52:33;;;;;;;;;3.33;3.00;;;;;-146.67;23.60;73366.09;5044217;28;64440;-75
2022/07/13 08:54:58;;;;;;;;;2.00;2.00;;;;;-146.67;23.57;73360.09;5044570;28;61833;-75
2022/07/13 08:57:25;;;;;;;;;2.00;2.00;;;;;-146.67;23.65;73358.09;5062079;28;61896;-77
2022/07/13 08:59:51;;;;;;;;;3.00;3.00;;;;;-146.67;23.48;73350.13;5063702;28;61945;-76
2022/07/13 09:02:17;;;;;;;;;3.00;3.00;;;;;-146.67;23.39;73344.13;5062115;28;61968;-75
2022/07/13 09:04:44;;;;;;;;;3.67;2.67;;;;;-146.67;23.66;73334.16;5063233;28;61811;-75
2022/07/13 09:07:12;;;;;;;;;2.00;2.00;;;;;-146.67;23.17;73332.16;5063355;28;62132;-75
2022/07/13 09:09:39;;;;;;;;;2.00;2.00;;;;;-146.67;22.80;73336.16;5062998;28;61896;-75
2022/07/13 09:12:19;;;;;;;;;1.00;1.00;;;;;-146.67;23.17;73334.16;5044025;28;64050;-75
2022/07/13 09:15:04;;;;;;;;;1.67;1.67;;;;;-146.67;22.82;73338.16;5044643;28;61919;-75
2022/07/13 09:17:38;;;;;;;;;2.00;2.00;;;;;-146.67;22.79;73326.16;5063031;28;61845;-75
2022/07/13 09:20:12;;;;;;;;;2.00;2.00;;;;;-146.67;23.00;73318.19;5063234;28;61817;-75
2022/07/13 09:22:54;;;;;;;;;3.00;1.00;;;;;-146.67;23.09;73306.22;5062439;28;61838;-76
2022/07/13 09:25:37;;;;;;;;;3.00;3.00;;;;;-146.67;22.52;73298.22;5062469;28;61780;-75
2022/07/13 09:28:10;;;;;;;;;1.67;1.67;;;;;-146.67;22.65;73304.22;5062976;28;61768;-75
2022/07/13 09:30:41;;;;;;;;;3.33;2.67;;;;;-146.67;22.61;73296.22;5063258;28;61717;-75
2022/07/13 09:33:07;;;;;;;;;2.00;2.00;;;;;-146.67;22.28;73302.22;5060272;28;64134;-75
2022/07/13 09:35:49;;;;;;;;;3.33;2.33;;;;;-146.67;22.26;73290.25;5061301;28;62061;-75
2022/07/13 09:38:30;;;;;;;;;1.67;1.67;;;;;-146.67;22.40;73264.31;5062738;28;62239;-75
2022/07/13 09:40:56;;;;;;;;;1.67;1.67;;;;;-146.67;22.08;73268.28;5061466;28;61732;-75
2022/07/13 09:46:09;;;;;;;;;2.67;1.00;;;;;-146.67;21.68;73250.31;5062809;28;61910;-75
2022/07/13 09:48:38;;;;;;;;;1.67;1.67;;;;;-146.67;21.71;73244.34;5061325;28;62074;-75
2022/07/13 09:51:05;;;;;;;;;2.33;2.33;;;;;-146.67;21.85;73242.34;5062847;28;61975;-76
2022/07/13 09:53:36;;;;;;;;;3.33;1.00;;;;;-146.67;21.82;73230.38;5061312;28;62876;-75
2022/07/13 09:56:04;;;;;;;;;1.67;1.00;;;;;-146.67;21.79;73226.38;5059129;28;61974;-75
2022/07/13 09:58:35;;;;;;;;;1.00;1.00;;;;;-146.67;21.82;73220.38;5062333;28;61769;-75
2022/07/13 10:01:03;;;;;;;;;0.33;0.33;;;;;-146.67;21.59;73200.44;5061963;28;61804;-75
2022/07/13 10:03:29;;;;;;;;;2.00;2.00;;;;;-146.67;21.36;73182.47;5061373;28;63059;-75
2022/07/13 10:05:55;;;;;;;;;1.00;1.00;;;;;-146.67;21.56;73174.50;5062334;28;61817;-75
2022/07/13 10:08:22;;;;;;;;;1.00;1.00;;;;;-146.67;21.60;73164.50;5055719;28;61686;-76
2022/07/13 10:10:48;;;;;;;;;1.67;1.67;;;;;-146.67;21.63;73146.53;5042524;28;61905;-75
2022/07/13 10:13:14;;;;;;;;;1.00;1.00;;;;;-146.67;21.84;73142.56;5056777;28;63673;-75
2022/07/13 10:15:40;;;;;;;;;1.67;1.67;;;;;-146.67;21.77;73128.59;5041919;28;61984;-75
2022/07/13 10:18:09;;;;;;;;;2.00;1.00;;;;;-146.67;21.64;73116.59;5061295;28;61784;-75
2022/07/13 10:20:40;;;;;;;;;0.67;0.67;;;;;-146.67;21.84;73096.66;5060216;28;62175;-75
2022/07/13 10:23:05;;;;;;;;;2.33;1.67;;;;;-146.67;21.74;73082.69;5059203;28;62043;-75
2022/07/13 10:25:45;;;;;;;;;3.00;1.33;;;;;-146.67;21.74;73066.72;5060147;28;61962;-76
2022/07/13 10:28:14;;;;;;;;;2.00;2.00;;;;;-146.67;21.54;73048.75;5042972;28;61942;-75
2022/07/13 10:30:39;;;;;;;;;3.33;1.67;;;;;-146.67;21.45;73036.78;5061264;28;62209;-75
2022/07/13 10:33:19;;;;;;;;;1.00;1.00;;;;;-146.67;21.64;73028.78;5042437;28;62075;-76
2022/07/13 10:35:50;;;;;;;;;2.00;1.67;;;;;-146.67;21.76;73022.81;5057711;28;61805;-76
2022/07/13 10:38:18;;;;;;;;;0.33;0.33;;;;;-146.67;21.63;73014.81;5043739;28;61871;-75
2022/07/13 10:40:44;;;;;;;;;1.00;1.00;;;;;-146.67;21.75;72998.84;5062412;28;61740;-75
2022/07/13 10:43:11;;;;;;;;;2.67;1.67;;;;;-146.67;21.68;72994.88;5042797;28;63655;-75
2022/07/13 10:45:38;;;;;;;;;0.67;0.67;;;;;-146.67;21.88;72986.88;5062470;28;62010;-75
2022/07/13 10:48:32;;;;;;;;;2.00;2.00;;;;;-146.67;21.55;72966.94;5062847;28;62117;-76
2022/07/13 10:50:59;;;;;;;;;1.67;0.67;;;;;-146.67;21.55;72944.97;5054304;28;61875;-75
2022/07/13 10:53:37;;;;;;;;;2.67;2.00;;;;;-146.67;21.26;72941.00;5064884;28;61824;-75
2022/07/13 10:56:04;;;;;;;;;1.67;1.67;;;;;-146.67;21.10;72925.03;5065314;28;61928;-75
2022/07/13 10:58:32;;;;;;;;;2.00;2.00;;;;;-146.67;21.39;72917.03;5048355;28;62066;-75
2022/07/13 11:00:59;;;;;;;;;2.00;2.00;;;;;-146.67;21.44;72911.06;5045270;28;61750;-75
2022/07/13 11:03:43;;;;;;;;;2.33;2.33;;;;;-146.67;21.36;72905.06;5026513;28;63957;-75
2022/07/13 11:06:12;;;;;;;;;3.00;2.00;;;;;-146.67;21.21;72877.13;5044876;28;61888;-75
2022/07/13 11:08:39;;;;;;;;;2.00;2.00;;;;;-146.67;21.36;72871.13;5044979;28;61745;-75
2022/07/13 11:11:09;;;;;;;;;2.33;2.33;;;;;-146.67;21.22;72871.13;5045223;28;61729;-75
2022/07/13 11:13:36;;;;;;;;;3.00;3.00;;;;;-146.67;21.57;72853.19;5026085;28;64263;-75
2022/07/13 11:16:01;;;;;;;;;0.33;0.33;;;;;-146.67;21.85;72841.22;5029876;28;61959;-75
2022/07/13 11:18:31;;;;;;;;;1.00;1.00;;;;;-146.67;21.77;72825.25;5046146;28;61894;-75
2022/07/13 11:21:00;;;;;;;;;2.67;2.00;;;;;-146.67;21.65;72807.28;5065056;28;62017;-75
2022/07/13 11:26:29;;;;;;;;;1.00;1.00;;;;;-146.67;21.49;72781.34;5064961;28;61902;-75